.
WxDataArchive / Data Records for 2006-05-01
2006-04-30 May 2006 2006-05-02

Data Records for Monday, 01 May 2006

Time	Temp	Chill	HIndex	Humid	Dewpt	 Wind 	HiWind	WindDir	Rain 	Barom 
-----	----	-----	------	-----	-----	------	------	-------	-----	----- 
00:00	53.5	53.5	53.5	93	51.5	2	5	90	0.01	30.114 
00:05	53.5	53.5	53.5	93	51.5	1	3	112	0.01	30.114 
00:10	53.5	53.5	53.5	93	51.5	3	7	112	0.01	30.114 
00:15	53.5	53.5	53.5	93	51.5	2	5	112	0.00	30.113 
00:20	53.5	53.5	53.5	93	51.5	1	5	90	0.02	30.113 
00:25	53.3	53.3	53.3	93	51.3	2	4	112	0.00	30.113 
00:30	53.3	53.3	53.3	93	51.3	2	5	68	0.01	30.114 
00:35	53.3	53.3	53.3	93	51.3	2	5	112	0.00	30.114 
00:40	53.3	53.3	53.3	93	51.3	2	4	90	0.01	30.114 
00:45	53.3	53.3	53.3	92	51.0	2	5	112	0.00	30.112 
00:50	53.2	53.2	53.2	92	50.9	2	4	112	0.00	30.112 
00:55	53.2	53.2	53.2	92	50.9	2	4	112	0.00	30.112 
01:00	53.2	53.2	53.2	92	50.9	2	4	112	0.01	30.114 
01:05	53.2	53.2	53.2	92	50.9	2	5	112	0.00	30.114 
01:10	53.1	53.1	53.1	92	50.8	1	3	112	0.00	30.114 
01:15	53.1	53.1	53.1	92	50.8	1	3	112	0.01	30.112 
01:20	52.9	52.9	52.9	92	50.6	2	4	90	0.00	30.112 
01:25	52.9	52.9	52.9	92	50.6	1	4	112	0.00	30.112 
01:30	52.9	52.9	52.9	92	50.6	1	3	90	0.00	30.113 
01:35	52.8	52.8	52.8	92	50.5	1	2	112	0.00	30.113 
01:40	52.8	52.8	52.8	92	50.5	1	2	112	0.01	30.113 
01:45	52.8	52.8	52.8	93	50.8	1	2	112	0.00	30.114 
01:50	52.6	52.6	52.6	93	50.6	1	3	112	0.00	30.114 
01:55	52.6	52.6	52.6	93	50.6	1	2	90	0.01	30.114 
02:00	52.6	52.6	52.6	93	50.6	1	3	90	0.00	30.111 
02:05	52.6	52.6	52.6	93	50.6	0	1	90	0.00	30.111 
02:10	52.5	52.5	52.5	93	50.5	0	2	90	0.00	30.111 
02:15	52.5	52.5	52.5	93	50.5	1	2	90	0.00	30.106 
02:20	52.5	52.5	52.5	93	50.5	1	3	90	0.00	30.106 
02:25	52.5	52.5	52.5	93	50.5	1	2	90	0.00	30.106 
02:30	52.5	52.5	52.5	93	50.5	1	2	90	0.00	30.099 
02:35	52.5	52.5	52.5	93	50.5	1	3	90	0.00	30.099 
02:40	52.5	52.5	52.5	93	50.5	1	2	90	0.00	30.099 
02:45	52.5	52.5	52.5	93	50.5	1	3	90	0.00	30.097 
02:50	52.5	52.5	52.5	93	50.5	1	3	90	0.00	30.097 
02:55	52.5	52.5	52.5	93	50.5	2	3	90	0.00	30.097 
03:00	52.6	52.6	52.6	94	50.9	2	3	90	0.00	30.092 
03:05	52.6	52.6	52.6	94	50.9	1	3	68	0.00	30.092 
03:10	52.6	52.6	52.6	94	50.9	2	4	90	0.00	30.092 
03:15	52.5	52.5	52.5	94	50.8	2	5	90	0.00	30.085 
03:20	52.6	52.6	52.6	93	50.6	2	4	90	0.00	30.085 
03:25	52.6	52.6	52.6	93	50.6	2	5	90	0.00	30.085 
03:30	52.6	52.6	52.6	93	50.6	2	4	112	0.00	30.083 
03:35	52.6	52.6	52.6	93	50.6	2	5	90	0.00	30.083 
03:40	52.6	52.6	52.6	93	50.6	2	4	112	0.00	30.083 
03:45	52.6	52.6	52.6	93	50.6	2	5	112	0.00	30.084 
03:50	52.6	52.6	52.6	93	50.6	2	4	112	0.00	30.084 
03:55	52.6	52.6	52.6	93	50.6	2	5	112	0.00	30.084 
04:00	52.6	52.6	52.6	93	50.6	1	5	112	0.00	30.084 
04:05	52.6	52.6	52.6	93	50.6	1	4	112	0.00	30.084 
04:10	52.5	52.5	52.5	93	50.5	2	4	112	0.00	30.084 
04:15	52.5	52.5	52.5	93	50.5	2	4	112	0.00	30.082 
04:20	52.5	52.5	52.5	93	50.5	2	4	112	0.00	30.082 
04:25	52.5	52.5	52.5	93	50.5	1	3	112	0.00	30.082 
04:30	52.5	52.5	52.5	93	50.5	1	3	112	0.00	30.083 
04:35	52.5	52.5	52.5	93	50.5	1	3	112	0.00	30.083 
04:40	52.5	52.5	52.5	93	50.5	2	5	112	0.00	30.083 
04:45	52.5	52.5	52.5	93	50.5	2	4	90	0.00	30.081 
04:50	52.5	52.5	52.5	93	50.5	2	6	112	0.00	30.081 
04:55	52.5	52.5	52.5	93	50.5	2	5	112	0.00	30.081 
05:00	52.5	52.5	52.5	93	50.5	2	6	90	0.00	30.086 
05:05	52.5	52.5	52.5	93	50.5	1	4	112	0.00	30.086 
05:10	52.5	52.5	52.5	93	50.5	2	4	112	0.00	30.086 
05:15	52.5	52.5	52.5	93	50.5	1	4	90	0.00	30.086 
05:20	52.5	52.5	52.5	92	50.2	2	9	112	0.00	30.086 
05:25	52.6	52.6	52.6	92	50.3	2	5	112	0.00	30.086 
05:30	52.6	52.6	52.6	92	50.3	2	4	112	0.00	30.084 
05:35	52.6	52.6	52.6	92	50.3	2	5	112	0.00	30.084 
05:40	52.6	52.6	52.6	92	50.3	2	5	90	0.00	30.084 
05:45	52.6	52.6	52.6	92	50.3	2	5	112	0.00	30.083 
05:50	52.6	52.6	52.6	92	50.3	2	5	90	0.00	30.083 
05:55	52.6	52.6	52.6	91	50.0	2	6	112	0.00	30.083 
06:00	52.8	52.8	52.8	91	50.2	2	5	112	0.00	30.084 
06:05	52.8	52.8	52.8	91	50.2	3	5	112	0.00	30.084 
06:10	52.8	52.8	52.8	90	49.9	2	6	90	0.00	30.084 
06:15	52.8	52.8	52.8	90	49.9	1	3	112	0.00	30.096 
06:20	52.8	52.8	52.8	90	49.9	1	4	68	0.00	30.096 
06:25	52.8	52.8	52.8	91	50.2	1	3	135	0.00	30.096 
06:30	52.8	52.8	52.8	90	49.9	1	4	90	0.00	30.100 
06:35	52.8	52.8	52.8	90	49.9	1	3	90	0.00	30.100 
06:40	52.8	52.8	52.8	91	50.2	1	3	90	0.01	30.100 
06:45	52.8	52.8	52.8	91	50.2	1	3	90	0.00	30.097 
06:50	52.6	52.6	52.6	91	50.0	1	3	90	0.00	30.097 
06:55	52.6	52.6	52.6	91	50.0	1	2	112	0.00	30.097 
07:00	52.6	52.6	52.6	91	50.0	0	2	135	0.00	30.100 
07:05	52.6	52.6	52.6	92	50.3	1	2	135	0.00	30.100 
07:10	52.5	52.5	52.5	92	50.2	1	3	112	0.00	30.100 
07:15	52.5	52.5	52.5	92	50.2	1	2	112	0.00	30.110 
07:20	52.6	52.6	52.6	92	50.3	1	2	112	0.00	30.110 
07:25	52.6	52.6	52.6	92	50.3	1	2	112	0.01	30.110 
07:30	52.6	52.6	52.6	92	50.3	1	4	112	0.00	30.113 
07:35	52.6	52.6	52.6	92	50.3	0	2	112	0.00	30.113 
07:40	52.6	52.6	52.6	92	50.3	1	4	112	0.00	30.113 
07:45	52.6	52.6	52.6	92	50.3	1	3	112	0.00	30.114 
07:50	52.8	52.8	52.8	92	50.5	1	2	112	0.01	30.114 
07:55	52.8	52.8	52.8	92	50.5	0	3	112	0.00	30.114 
08:00	52.8	52.8	52.8	92	50.5	1	2	112	0.01	30.117 
08:05	52.8	52.8	52.8	92	50.5	1	3	112	0.00	30.117 
08:10	52.8	52.8	52.8	92	50.5	1	2	112	0.01	30.117 
08:15	52.8	52.8	52.8	92	50.5	1	4	112	0.01	30.121 
08:20	52.8	52.8	52.8	92	50.5	1	3	68	0.01	30.121 
08:25	52.8	52.8	52.8	92	50.5	1	4	112	0.00	30.121 
08:30	52.8	52.8	52.8	92	50.5	2	5	112	0.01	30.123 
08:35	52.8	52.8	52.8	92	50.5	1	4	112	0.00	30.123 
08:40	52.8	52.8	52.8	91	50.2	1	4	112	0.00	30.123 
08:45	52.9	52.9	52.9	91	50.3	2	5	112	0.00	30.120 
08:50	52.9	52.9	52.9	91	50.3	2	5	112	0.01	30.120 
08:55	52.9	52.9	52.9	90	50.0	2	5	112	0.00	30.120 
09:00	53.1	53.1	53.1	90	50.2	2	5	90	0.00	30.122 
09:05	53.2	53.2	53.2	89	50.0	2	5	90	0.00	30.122 
09:10	53.5	53.5	53.5	89	50.3	2	5	90	0.00	30.122 
09:15	53.6	53.6	53.6	88	50.1	2	5	90	0.00	30.118 
09:20	53.9	53.9	53.9	88	50.4	2	5	90	0.00	30.118 
09:25	54.1	54.1	54.1	87	50.3	2	7	112	0.00	30.118 
09:30	54.4	54.4	54.4	86	50.3	3	6	90	0.00	30.125 
09:35	54.5	54.5	54.5	86	50.4	3	7	90	0.00	30.125 
09:40	55.0	55.0	55.0	86	50.9	2	5	68	0.00	30.125 
09:45	55.9	55.9	55.9	84	51.1	3	11	90	0.00	30.125 
09:50	56.6	56.6	56.6	82	51.2	4	9	90	0.00	30.125 
09:55	57.3	57.3	57.3	80	51.2	3	10	90	0.00	30.125 
10:00	57.6	57.6	57.6	80	51.5	3	8	90	0.00	30.126 
10:05	57.5	57.5	57.5	80	51.4	4	9	90	0.00	30.126 
10:10	57.8	57.8	57.8	78	51.0	4	11	90	0.00	30.126 
10:15	57.5	57.5	57.5	78	50.7	5	15	90	0.00	30.125 
10:20	57.5	57.5	57.5	78	50.7	4	12	90	0.00	30.125 
10:25	57.8	57.8	57.8	79	51.3	3	9	90	0.00	30.125 
10:30	57.8	57.8	57.8	77	50.6	4	8	90	0.00	30.123 
10:35	57.6	57.6	57.6	77	50.4	5	13	90	0.00	30.123 
10:40	57.6	57.6	57.6	76	50.1	4	9	112	0.00	30.123 
10:45	57.6	57.6	57.6	74	49.4	4	14	90	0.00	30.121 
10:50	57.8	57.8	57.8	74	49.6	5	11	90	0.00	30.121 
10:55	58.3	58.3	58.3	75	50.4	3	8	112	0.00	30.121 
11:00	58.3	58.3	58.3	74	50.0	4	10	90	0.00	30.125 
11:05	58.3	58.3	58.3	75	50.4	3	7	112	0.00	30.125 
11:10	58.1	58.1	58.1	74	49.9	4	11	90	0.00	30.125 
11:15	58.1	58.1	58.1	75	50.2	2	7	90	0.00	30.126 
11:20	58.1	58.1	58.1	74	49.9	3	9	90	0.00	30.126 
11:25	58.1	58.1	58.1	74	49.9	3	11	112	0.00	30.126 
11:30	58.1	58.1	58.1	74	49.9	3	9	90	0.00	30.125 
11:35	58.0	58.0	58.0	75	50.1	4	10	90	0.00	30.125 
11:40	58.0	58.0	58.0	75	50.1	3	7	90	0.00	30.125 
11:45	58.4	58.4	58.4	76	50.9	2	6	90	0.00	30.124 
11:50	59.0	59.0	59.0	73	50.4	3	7	90	0.00	30.124 
11:55	59.8	59.8	59.8	72	50.8	4	8	90	0.00	30.124 
12:00	60.2	60.2	60.2	70	50.4	3	10	90	0.00	30.122 
12:05	60.1	60.1	60.1	71	50.7	4	8	90	0.00	30.122 
12:10	60.1	60.1	60.1	72	51.0	2	6	90	0.00	30.122 
12:15	60.2	60.2	60.2	69	50.0	4	12	90	0.00	30.122 
12:20	60.1	60.1	60.1	70	50.3	4	15	90	0.00	30.122 
12:25	60.2	60.2	60.2	72	51.1	3	6	90	0.00	30.122 
12:30	60.9	60.9	60.9	70	51.0	4	11	90	0.00	30.123 
12:35	61.0	61.0	61.0	69	50.8	4	10	90	0.00	30.123 
12:40	61.3	61.3	61.3	68	50.6	3	9	90	0.00	30.123 
12:45	61.5	61.5	61.5	69	51.2	3	9	90	0.00	30.120 
12:50	61.3	61.3	61.3	68	50.6	4	9	90	0.00	30.120 
12:55	61.3	61.3	61.3	69	51.0	3	6	90	0.00	30.120 
13:00	61.3	61.3	61.3	71	51.8	3	6	90	0.00	30.114 
13:05	61.6	61.6	61.6	70	51.7	3	5	112	0.00	30.114 
13:10	62.3	62.3	62.3	68	51.6	4	9	90	0.00	30.114 
13:15	62.3	62.3	62.3	69	52.0	3	10	90	0.00	30.110 
13:20	62.1	62.1	62.1	68	51.4	3	9	90	0.00	30.110 
13:25	62.1	62.1	62.1	69	51.8	3	6	90	0.00	30.110 
13:30	62.3	62.3	62.3	68	51.6	3	7	90	0.00	30.108 
13:35	62.6	62.6	62.6	68	51.9	3	6	90	0.00	30.108 
13:40	62.6	62.6	62.6	68	51.9	3	7	90	0.00	30.108 
13:45	62.7	62.7	62.7	70	52.8	3	10	112	0.00	30.103 
13:50	62.7	62.7	62.7	68	52.0	3	9	90	0.00	30.103 
13:55	62.4	62.4	62.4	69	52.1	3	6	90	0.00	30.103 
14:00	62.4	62.4	62.4	68	51.7	3	7	90	0.00	30.104 
14:05	62.6	62.6	62.6	69	52.3	2	6	90	0.00	30.104 
14:10	62.7	62.7	62.7	68	52.0	3	7	90	0.00	30.104 
14:15	62.7	62.7	62.7	67	51.6	3	8	90	0.00	30.102 
14:20	62.6	62.6	62.6	67	51.5	3	6	90	0.00	30.102 
14:25	62.4	62.4	62.4	68	51.7	2	6	112	0.00	30.102 
14:30	62.3	62.3	62.3	68	51.6	4	8	90	0.00	30.099 
14:35	62.3	62.3	62.3	68	51.6	3	9	90	0.00	30.099 
14:40	62.1	62.1	62.1	68	51.4	3	6	90	0.00	30.099 
14:45	62.1	62.1	62.1	69	51.8	2	8	90	0.00	30.097 
14:50	62.0	62.0	62.0	69	51.7	2	5	90	0.00	30.097 
14:55	62.1	62.1	62.1	69	51.8	2	7	90	0.00	30.097 
15:00	62.1	62.1	62.1	68	51.4	3	7	90	0.00	30.094 
15:05	62.1	62.1	62.1	68	51.4	3	7	112	0.00	30.094 
15:10	62.3	62.3	62.3	68	51.6	3	7	112	0.00	30.094 
15:15	62.4	62.4	62.4	69	52.1	3	9	90	0.00	30.093 
15:20	62.6	62.6	62.6	68	51.9	2	6	112	0.00	30.093 
15:25	62.9	62.9	62.9	69	52.6	2	5	112	0.00	30.093 
15:30	63.1	63.1	63.1	68	52.4	3	6	90	0.00	30.090 
15:35	63.2	63.2	63.2	67	52.1	2	4	90	0.00	30.090 
15:40	63.4	63.4	63.4	67	52.2	2	6	68	0.00	30.090 
15:45	63.4	63.4	63.4	68	52.6	2	5	112	0.00	30.089 
15:50	63.2	63.2	63.2	68	52.5	2	5	90	0.00	30.089 
15:55	63.1	63.1	63.1	67	52.0	2	7	90	0.00	30.089 
16:00	62.9	62.9	62.9	69	52.6	2	4	90	0.00	30.090 
16:05	62.6	62.6	62.6	69	52.3	2	9	90	0.00	30.090 
16:10	62.4	62.4	62.4	71	52.9	1	5	112	0.00	30.090 
16:15	62.4	62.4	62.4	69	52.1	2	5	112	0.00	30.091 
16:20	62.6	62.6	62.6	70	52.7	1	4	90	0.00	30.091 
16:25	62.6	62.6	62.6	70	52.7	1	5	90	0.00	30.091 
16:30	62.6	62.6	62.6	69	52.3	2	7	90	0.00	30.080 
16:35	62.4	62.4	62.4	69	52.1	3	6	90	0.00	30.080 
16:40	62.4	62.4	62.4	70	52.5	2	6	90	0.00	30.080 
16:45	62.6	62.6	62.6	69	52.3	2	6	68	0.00	30.076 
16:50	62.7	62.7	62.7	70	52.8	2	4	90	0.00	30.076 
16:55	62.7	62.7	62.7	70	52.8	2	5	112	0.00	30.076 
17:00	62.6	62.6	62.6	70	52.7	3	6	112	0.00	30.071 
17:05	62.4	62.4	62.4	70	52.5	2	4	112	0.00	30.071 
17:10	62.4	62.4	62.4	71	52.9	2	4	90	0.00	30.071 
17:15	62.3	62.3	62.3	71	52.8	1	4	112	0.00	30.063 
17:20	62.1	62.1	62.1	71	52.6	2	5	90	0.00	30.063 
17:25	62.0	62.0	62.0	72	52.9	2	4	112	0.00	30.063 
17:30	62.0	62.0	62.0	72	52.9	1	4	112	0.00	30.072 
17:35	62.0	62.0	62.0	73	53.2	1	5	112	0.00	30.072 
17:40	61.8	61.8	61.8	73	53.0	1	3	248	0.00	30.072 
17:45	61.5	61.5	61.5	74	53.1	1	4	248	0.00	30.080 
17:50	61.3	61.3	61.3	74	52.9	0	2	248	0.00	30.080 
17:55	61.2	61.2	61.2	75	53.2	0	2	248	0.00	30.080 
18:00	61.2	61.2	61.2	75	53.2	0	2	248	0.00	30.077 
18:05	61.2	61.2	61.2	75	53.2	0	2	248	0.00	30.077 
18:10	61.3	61.3	61.3	75	53.3	0	2	135	0.00	30.077 
18:15	61.3	61.3	61.3	75	53.3	0	2	135	0.00	30.071 
18:20	61.3	61.3	61.3	75	53.3	0	2	135	0.00	30.071 
18:25	61.5	61.5	61.5	75	53.5	0	2	135	0.00	30.071 
18:30	61.5	61.5	61.5	75	53.5	0	2	135	0.00	30.069 
18:35	61.5	61.5	61.5	75	53.5	1	3	135	0.00	30.069 
18:40	61.5	61.5	61.5	74	53.1	1	3	112	0.00	30.069 
18:45	61.5	61.5	61.5	74	53.1	1	2	112	0.00	30.063 
18:50	61.5	61.5	61.5	74	53.1	0	2	112	0.00	30.063 
18:55	61.5	61.5	61.5	74	53.1	0	2	112	0.00	30.063 
19:00	61.5	61.5	61.5	74	53.1	0	1	112	0.00	30.067 
19:05	61.5	61.5	61.5	74	53.1	0	1	112	0.00	30.067 
19:10	61.5	61.5	61.5	74	53.1	0	1	112	0.00	30.067 
19:15	61.5	61.5	61.5	75	53.5	0	1	112	0.00	30.065 
19:20	61.5	61.5	61.5	75	53.5	0	0	---	0.00	30.065 
19:25	61.3	61.3	61.3	75	53.3	0	1	112	0.00	30.065 
19:30	61.3	61.3	61.3	76	53.7	0	0	---	0.00	30.063 
19:35	61.3	61.3	61.3	76	53.7	0	1	112	0.00	30.063 
19:40	61.2	61.2	61.2	76	53.6	0	1	112	0.00	30.063 
19:45	61.2	61.2	61.2	78	54.3	0	1	112	0.00	30.061 
19:50	61.0	61.0	61.0	80	54.8	0	0	---	0.01	30.061 
19:55	60.9	60.9	60.9	82	55.4	0	0	---	0.00	30.061 
20:00	60.5	60.5	60.5	83	55.3	0	1	112	0.00	30.061 
20:05	60.2	60.2	60.2	84	55.3	0	0	---	0.00	30.061 
20:10	59.9	59.9	59.9	84	55.0	0	0	---	0.00	30.061 
20:15	59.8	59.8	59.8	85	55.3	0	0	---	0.00	30.062 
20:20	59.6	59.6	59.6	85	55.1	0	0	---	0.00	30.062 
20:25	59.3	59.3	59.3	85	54.8	0	0	---	0.00	30.062 
20:30	59.0	59.0	59.0	85	54.5	0	0	---	0.00	30.060 
20:35	58.7	58.7	58.7	85	54.2	0	0	---	0.00	30.060 
20:40	58.4	58.4	58.4	85	53.9	0	0	---	0.00	30.060 
20:45	58.1	58.1	58.1	86	53.9	0	0	---	0.00	30.060 
20:50	58.0	58.0	58.0	87	54.1	0	0	---	0.00	30.060 
20:55	57.6	57.6	57.6	88	54.1	0	0	---	0.00	30.060 
21:00	57.5	57.5	57.5	88	54.0	0	0	---	0.00	30.061 
21:05	57.2	57.2	57.2	89	54.0	0	0	---	0.00	30.061 
21:10	57.0	57.0	57.0	89	53.8	0	0	---	0.00	30.061 
21:15	56.9	56.9	56.9	89	53.7	0	0	---	0.00	30.056 
21:20	56.7	56.7	56.7	90	53.8	0	0	---	0.00	30.056 
21:25	56.6	56.6	56.6	90	53.7	0	0	---	0.00	30.056 
21:30	56.5	56.5	56.5	90	53.6	0	0	---	0.00	30.055 
21:35	56.3	56.3	56.3	91	53.7	0	0	---	0.00	30.055 
21:40	56.5	56.5	56.5	92	54.2	0	0	---	0.00	30.055 
21:45	56.5	56.5	56.5	92	54.2	0	0	---	0.00	30.057 
21:50	56.5	56.5	56.5	92	54.2	0	0	---	0.00	30.057 
21:55	56.3	56.3	56.3	92	54.0	0	0	---	0.00	30.057 
22:00	56.3	56.3	56.3	93	54.3	0	0	---	0.00	30.055 
22:05	56.2	56.2	56.2	93	54.2	0	0	---	0.00	30.055 
22:10	56.3	56.3	56.3	93	54.3	0	1	112	0.00	30.055 
22:15	56.3	56.3	56.3	93	54.3	0	0	---	0.00	30.054 
22:20	56.3	56.3	56.3	93	54.3	0	0	---	0.00	30.054 
22:25	56.3	56.3	56.3	92	54.0	0	1	112	0.00	30.054 
22:30	56.3	56.3	56.3	92	54.0	0	1	112	0.00	30.050 
22:35	56.3	56.3	56.3	92	54.0	0	0	---	0.00	30.050 
22:40	56.3	56.3	56.3	92	54.0	0	0	---	0.00	30.050 
22:45	56.3	56.3	56.3	92	54.0	0	0	---	0.00	30.047 
22:50	56.3	56.3	56.3	92	54.0	0	0	---	0.00	30.047 
22:55	56.5	56.5	56.5	92	54.2	0	0	---	0.00	30.047 
23:00	56.5	56.5	56.5	92	54.2	0	1	112	0.00	30.045 
23:05	56.5	56.5	56.5	92	54.2	0	0	---	0.00	30.045 
23:10	56.5	56.5	56.5	91	53.9	0	0	---	0.00	30.045 
23:15	56.6	56.6	56.6	91	54.0	0	0	---	0.00	30.037 
23:20	56.6	56.6	56.6	90	53.7	0	1	112	0.00	30.037 
23:25	56.7	56.7	56.7	90	53.8	0	1	112	0.00	30.037 
23:30	56.7	56.7	56.7	90	53.8	0	0	---	0.00	30.029 
23:35	56.6	56.6	56.6	90	53.7	0	0	---	0.00	30.029 
23:40	56.5	56.5	56.5	90	53.6	0	0	---	0.00	30.029 
23:45	56.5	56.5	56.5	90	53.6	0	0	---	0.00	30.023 
23:50	56.3	56.3	56.3	90	53.4	0	0	---	0.00	30.023 
23:55	56.3	56.3	56.3	90	53.4	0	0	---	0.00	30.023 

CoCoRaHS
IN-AL-39
A2 Web Hosting
Creative Commons License
GoDaddy
Look for:

loaded 2017-10-18 07:31:16 • last modified 2010-11-18 10:43:29
Privacy PolicyDisclaimer
• wx.awcolley.com is powered by PmWiki v.2002016 •
• all content (unless otherwise noted) © 2017 A W Colley